createdAt,value
2023-04-02T00:01:01.969Z,5.87
2023-04-02T00:03:59.519Z,5.53
2023-04-02T00:06:30.517Z,5.97
2023-04-02T00:09:03.315Z,5.47
2023-04-02T00:11:37.526Z,6.23
2023-04-02T00:14:27.088Z,5.50
2023-04-02T00:16:57.036Z,5.60
2023-04-02T00:19:41.422Z,5.90
2023-04-02T00:22:15.884Z,5.30
2023-04-02T00:24:42.897Z,5.80
2023-04-02T00:27:15.659Z,5.57
2023-04-02T00:29:51.869Z,6.77
2023-04-02T00:32:31.871Z,6.30
2023-04-02T00:35:00.187Z,6.03
2023-04-02T00:37:39.019Z,6.40
2023-04-02T00:40:30.745Z,6.83
2023-04-02T00:43:04.385Z,6.03
2023-04-02T00:45:38.367Z,5.73
2023-04-02T00:48:50.580Z,5.63
2023-04-02T00:51:36.759Z,5.50
2023-04-02T00:54:07.007Z,6.30
2023-04-02T00:56:44.353Z,5.70
2023-04-02T00:59:31.475Z,4.97
2023-04-02T01:02:22.776Z,4.53
2023-04-02T01:05:02.443Z,4.43
2023-04-02T01:07:47.807Z,4.50
2023-04-02T01:11:03.035Z,4.33
2023-04-02T01:14:02.716Z,4.23
2023-04-02T01:16:42.394Z,4.03
2023-04-02T01:19:49.205Z,4.80
2023-04-02T01:22:51.301Z,4.43
2023-04-02T01:25:43.870Z,4.40
2023-04-02T01:28:51.511Z,4.10
2023-04-02T01:31:18.829Z,4.47
2023-04-02T01:33:48.427Z,4.13
2023-04-02T01:36:42.525Z,3.43
2023-04-02T01:39:30.259Z,3.77
2023-04-02T01:42:11.368Z,4.40
2023-04-02T01:44:44.435Z,3.97
2023-04-02T01:47:15.986Z,4.47
2023-04-02T01:49:44.294Z,3.97
2023-04-02T01:52:25.793Z,4.00
2023-04-02T01:54:53.647Z,3.33
2023-04-02T01:57:20.990Z,3.67
2023-04-02T01:59:48.313Z,3.67
2023-04-02T02:02:15.999Z,3.57
2023-04-02T02:04:44.068Z,3.63
2023-04-02T02:07:18.066Z,3.33
2023-04-02T02:09:45.757Z,3.47
2023-04-02T02:12:16.211Z,3.80
2023-04-02T02:14:49.393Z,3.63
2023-04-02T02:17:30.524Z,3.30
2023-04-02T02:20:01.620Z,3.30
2023-04-02T02:22:45.219Z,3.77
2023-04-02T02:25:24.702Z,3.47
2023-04-02T02:28:09.487Z,3.67
2023-04-02T02:31:05.840Z,3.80
2023-04-02T02:33:56.367Z,4.10
2023-04-02T02:36:51.676Z,3.70
2023-04-02T02:39:28.141Z,3.93
2023-04-02T02:42:06.025Z,4.07
2023-04-02T02:44:38.950Z,3.50
2023-04-02T02:47:25.003Z,4.17
2023-04-02T02:49:59.757Z,3.77
2023-04-02T02:52:33.110Z,3.90
2023-04-02T02:55:06.907Z,4.07
2023-04-02T02:57:39.730Z,4.17
2023-04-02T03:00:10.063Z,4.23
2023-04-02T03:02:39.449Z,4.37
2023-04-02T03:05:07.642Z,4.73
2023-04-02T03:07:35.033Z,5.10
2023-04-02T03:10:15.242Z,4.50
2023-04-02T03:13:01.187Z,4.70
2023-04-02T03:15:42.325Z,5.73
2023-04-02T03:18:58.098Z,5.20
2023-04-02T03:21:36.824Z,5.57
2023-04-02T03:24:30.404Z,5.40
2023-04-02T03:27:11.660Z,5.70
2023-04-02T03:29:46.459Z,6.60
2023-04-02T03:32:23.393Z,7.03
2023-04-02T03:35:01.978Z,7.13
2023-04-02T03:38:16.383Z,6.80
2023-04-02T03:40:59.809Z,7.20
2023-04-02T03:43:34.806Z,8.03
2023-04-02T03:46:18.618Z,7.73
2023-04-02T03:48:57.765Z,7.30
2023-04-02T03:51:34.658Z,8.07
2023-04-02T03:54:02.743Z,7.87
2023-04-02T03:56:39.767Z,8.73
2023-04-02T03:59:18.521Z,7.87
2023-04-02T04:02:19.823Z,8.50
2023-04-02T04:04:48.878Z,8.20
2023-04-02T04:07:38.590Z,8.10
2023-04-02T04:10:08.748Z,8.97
2023-04-02T04:12:43.660Z,9.00
2023-04-02T04:15:33.299Z,9.40
2023-04-02T04:18:21.660Z,9.23
2023-04-02T04:21:00.697Z,8.93
2023-04-02T04:23:38.405Z,8.80
2023-04-02T04:26:42.629Z,9.37
2023-04-02T04:29:46.592Z,8.80
2023-04-02T04:32:39.354Z,8.37
2023-04-02T04:35:29.795Z,9.27
2023-04-02T04:38:14.475Z,9.00
2023-04-02T04:40:54.217Z,8.97
2023-04-02T04:44:06.969Z,8.23
2023-04-02T04:46:50.075Z,8.50
2023-04-02T04:49:47.903Z,7.93
2023-04-02T04:52:29.493Z,8.77
2023-04-02T04:54:56.610Z,9.60
2023-04-02T04:57:31.136Z,9.77
2023-04-02T05:00:33.110Z,10.33
2023-04-02T05:03:13.493Z,11.13
2023-04-02T05:05:41.487Z,10.90
2023-04-02T05:08:27.123Z,11.13
2023-04-02T05:11:02.681Z,11.40
2023-04-02T05:14:02.018Z,11.40
2023-04-02T05:17:01.665Z,11.70
2023-04-02T05:20:10.004Z,11.10
2023-04-02T05:22:49.029Z,12.10
2023-04-02T05:25:28.378Z,12.23
2023-04-02T05:28:17.455Z,13.20
2023-04-02T05:31:03.265Z,14.47
2023-04-02T05:33:33.982Z,12.43
2023-04-02T05:36:11.755Z,12.27
2023-04-02T05:38:46.412Z,12.37
2023-04-02T05:41:32.435Z,11.30
2023-04-02T05:44:24.492Z,11.93
2023-04-02T05:47:12.365Z,10.67
2023-04-02T05:49:39.422Z,10.77
2023-04-02T05:52:16.958Z,10.20
2023-04-02T05:54:51.850Z,10.03
2023-04-02T05:57:42.717Z,8.80
2023-04-02T06:00:29.221Z,7.90
2023-04-02T06:03:07.602Z,8.00
2023-04-02T06:05:42.040Z,7.93
2023-04-02T06:08:19.512Z,8.10
2023-04-02T06:11:06.904Z,8.00
2023-04-02T06:13:34.155Z,7.67
2023-04-02T06:16:01.607Z,8.13
2023-04-02T06:18:33.625Z,6.77
2023-04-02T06:21:01.528Z,7.20
2023-04-02T06:23:43.449Z,6.43
2023-04-02T06:26:18.258Z,6.80
2023-04-02T06:28:52.314Z,7.47
2023-04-02T06:31:46.897Z,6.53
2023-04-02T06:34:19.210Z,6.33
2023-04-02T06:36:47.903Z,6.50
2023-04-02T06:39:25.257Z,5.83
2023-04-02T06:42:01.968Z,6.07
2023-04-02T06:44:35.771Z,6.90
2023-04-02T06:47:47.291Z,5.93
2023-04-02T06:51:04.088Z,5.73
2023-04-02T06:53:39.182Z,6.83
2023-04-02T06:56:22.461Z,6.37
2023-04-02T06:58:49.610Z,6.30
2023-04-02T07:01:27.324Z,6.00
2023-04-02T07:03:56.161Z,6.23
2023-04-02T07:06:23.458Z,5.43
2023-04-02T07:08:50.695Z,6.20
2023-04-02T07:11:21.693Z,6.33
2023-04-02T07:13:50.567Z,6.23
2023-04-02T07:16:21.461Z,6.27
2023-04-02T07:18:49.176Z,6.63
2023-04-02T07:21:16.199Z,6.10
2023-04-02T07:23:43.330Z,6.73
2023-04-02T07:26:16.885Z,6.63
2023-04-02T07:28:44.360Z,5.90
2023-04-02T07:31:25.890Z,6.20
2023-04-02T07:34:00.230Z,6.23
2023-04-02T07:36:29.889Z,6.10
2023-04-02T07:38:57.262Z,6.00
2023-04-02T07:41:24.549Z,5.83
2023-04-02T07:43:51.564Z,6.53
2023-04-02T07:46:20.325Z,6.87
2023-04-02T07:48:48.141Z,5.83
2023-04-02T07:51:26.703Z,6.27
2023-04-02T07:53:57.204Z,5.80
2023-04-02T07:56:25.554Z,6.17
2023-04-02T07:58:52.710Z,6.20
2023-04-02T08:01:24.464Z,6.50
2023-04-02T08:03:54.416Z,6.37
2023-04-02T08:06:22.758Z,5.93
2023-04-02T08:08:50.787Z,6.77
2023-04-02T08:11:17.861Z,6.00
2023-04-02T08:13:46.086Z,6.70
2023-04-02T08:16:13.125Z,7.10
2023-04-02T08:18:40.290Z,6.43
2023-04-02T08:21:10.116Z,6.47
2023-04-02T08:23:38.090Z,6.70
2023-04-02T08:26:06.145Z,6.80
2023-04-02T08:28:33.208Z,6.67
2023-04-02T08:31:00.785Z,6.57
2023-04-02T08:33:27.932Z,6.53
2023-04-02T08:35:55.069Z,5.87
2023-04-02T08:38:22.980Z,6.43
2023-04-02T08:40:54.344Z,5.53
2023-04-02T08:43:51.065Z,6.33
2023-04-02T08:46:43.336Z,5.47
2023-04-02T08:49:24.993Z,6.47
2023-04-02T08:51:52.227Z,5.83
2023-04-02T08:54:42.746Z,6.00
2023-04-02T08:57:54.271Z,6.30
2023-04-02T09:00:48.911Z,6.13
2023-04-02T09:03:31.841Z,6.30
2023-04-02T09:06:02.154Z,5.47
2023-04-02T09:08:32.293Z,5.33
2023-04-02T09:11:21.653Z,5.33
2023-04-02T09:14:04.031Z,5.13
2023-04-02T09:16:44.004Z,5.10
2023-04-02T09:19:47.245Z,5.67
2023-04-02T09:22:30.262Z,4.90
2023-04-02T09:25:04.285Z,4.97
2023-04-02T09:27:34.824Z,7.90
2023-04-02T09:30:19.437Z,6.10
2023-04-02T09:33:07.654Z,5.07
2023-04-02T09:35:57.710Z,4.87
2023-04-02T09:38:31.813Z,4.50
2023-04-02T09:41:01.539Z,4.73
2023-04-02T09:43:39.564Z,3.83
2023-04-02T09:46:24.297Z,3.67
2023-04-02T09:49:03.782Z,3.80
2023-04-02T09:51:34.697Z,4.03
2023-04-02T09:54:04.521Z,4.10
2023-04-02T09:56:37.279Z,3.57
2023-04-02T09:59:13.101Z,3.17
2023-04-02T10:01:47.898Z,2.47
2023-04-02T10:04:36.972Z,3.57
2023-04-02T10:07:06.532Z,2.37
2023-04-02T10:09:38.989Z,3.07
2023-04-02T10:12:12.518Z,3.13
2023-04-02T10:14:48.365Z,2.90
2023-04-02T10:17:27.940Z,3.30
2023-04-02T10:20:06.236Z,2.97
2023-04-02T10:22:33.594Z,3.10
2023-04-02T10:25:01.551Z,3.40
2023-04-02T10:27:45.842Z,3.40
2023-04-02T10:30:45.178Z,3.10
2023-04-02T10:33:41.200Z,2.47
2023-04-02T10:36:51.309Z,3.10
2023-04-02T10:39:53.534Z,3.00
2023-04-02T10:42:32.491Z,3.30
2023-04-02T10:45:18.117Z,3.87
2023-04-02T10:48:09.261Z,3.77
2023-04-02T10:50:58.581Z,3.77
2023-04-02T10:53:51.239Z,4.00
2023-04-02T10:56:18.434Z,4.10
2023-04-02T10:59:46.822Z,3.80
2023-04-02T11:02:52.045Z,4.07
2023-04-02T11:05:44.478Z,4.60
2023-04-02T11:08:23.687Z,4.93
2023-04-02T11:11:13.369Z,5.63
2023-04-02T11:14:22.528Z,5.93
2023-04-02T11:16:51.934Z,5.83
2023-04-02T11:19:18.790Z,6.23
2023-04-02T11:22:14.330Z,5.83
2023-04-02T11:24:49.795Z,6.80
2023-04-02T11:27:28.127Z,6.73
2023-04-02T11:30:11.677Z,7.00
2023-04-02T11:32:43.089Z,6.70
2023-04-02T11:35:30.940Z,6.23
2023-04-02T11:38:12.493Z,6.77
2023-04-02T11:41:04.751Z,7.27
2023-04-02T11:43:34.598Z,5.87
2023-04-02T11:46:20.703Z,5.50
2023-04-02T11:48:48.399Z,5.90
2023-04-02T11:51:22.538Z,5.53
2023-04-02T11:53:54.570Z,6.20
2023-04-02T11:57:03.417Z,5.47
2023-04-02T12:00:11.349Z,5.77
2023-04-02T12:03:25.666Z,5.87
2023-04-02T12:06:00.838Z,5.83
2023-04-02T12:08:56.977Z,6.13
2023-04-02T12:11:40.354Z,5.87
2023-04-02T12:14:38.271Z,5.90
2023-04-02T12:17:34.132Z,6.23
2023-04-02T12:20:31.747Z,6.07
2023-04-02T12:22:59.130Z,5.87
2023-04-02T12:25:30.030Z,6.10
2023-04-02T12:28:19.666Z,5.63
2023-04-02T12:30:49.482Z,5.63
2023-04-02T12:33:22.209Z,5.83
2023-04-02T12:35:55.045Z,5.30
2023-04-02T12:38:24.375Z,4.97
2023-04-02T12:41:15.721Z,5.07
2023-04-02T12:43:42.769Z,4.50
2023-04-02T12:46:14.325Z,4.63
2023-04-02T12:48:41.560Z,4.40
2023-04-02T12:51:10.301Z,4.43
2023-04-02T12:53:41.259Z,4.67
2023-04-02T12:56:18.408Z,4.27
2023-04-02T12:58:59.396Z,4.50
2023-04-02T13:01:29.589Z,4.13
2023-04-02T13:04:14.967Z,4.67
2023-04-02T13:06:52.130Z,4.20
2023-04-02T13:09:42.210Z,4.80
2023-04-02T13:12:33.074Z,4.57
2023-04-02T13:15:03.979Z,4.10
2023-04-02T13:18:01.847Z,3.90
2023-04-02T13:20:42.202Z,6.43
2023-04-02T13:23:30.917Z,7.27
2023-04-02T13:26:08.861Z,5.40
2023-04-02T13:28:36.117Z,5.37
2023-04-02T13:31:03.175Z,4.50
2023-04-02T13:33:30.202Z,5.33
2023-04-02T13:35:57.247Z,4.70
2023-04-02T13:38:24.271Z,5.50
2023-04-02T13:40:51.762Z,5.37
2023-04-02T13:43:20.707Z,5.47
2023-04-02T13:45:54.386Z,5.50
2023-04-02T13:48:24.654Z,5.00
2023-04-02T13:50:52.877Z,4.67
2023-04-02T13:53:33.181Z,5.37
2023-04-02T13:56:00.863Z,5.60
2023-04-02T13:58:27.906Z,5.10
2023-04-02T14:00:56.098Z,4.77
2023-04-02T14:03:23.419Z,4.43
2023-04-02T14:06:08.494Z,3.47
2023-04-02T14:09:16.768Z,4.17
2023-04-02T14:12:09.721Z,3.70
2023-04-02T14:14:52.412Z,3.53
2023-04-02T14:18:00.048Z,3.40
2023-04-02T14:21:08.222Z,3.80
2023-04-02T14:23:46.782Z,3.77
2023-04-02T14:26:40.582Z,4.17
2023-04-02T14:29:55.650Z,3.90
2023-04-02T14:32:53.156Z,3.67
2023-04-02T14:35:33.014Z,3.60
2023-04-02T14:38:40.611Z,4.20
2023-04-02T14:41:35.973Z,4.37
2023-04-02T14:44:08.550Z,4.77
2023-04-02T14:46:38.280Z,4.00
2023-04-02T14:49:25.051Z,5.10
2023-04-02T14:51:59.764Z,5.30
2023-04-02T14:54:42.770Z,4.83
2023-04-02T14:57:27.902Z,5.53
2023-04-02T15:00:20.687Z,4.00
2023-04-02T15:03:14.526Z,5.10
2023-04-02T15:05:52.797Z,3.73
2023-04-02T15:08:29.850Z,3.83
2023-04-02T15:11:10.823Z,4.43
2023-04-02T15:13:49.075Z,3.97
2023-04-02T15:16:23.580Z,3.73
2023-04-02T15:18:55.181Z,4.30
2023-04-02T15:21:29.653Z,4.10
2023-04-02T15:24:25.064Z,6.03
2023-04-02T15:27:23.907Z,4.87
2023-04-02T15:30:24.660Z,4.33
2023-04-02T15:32:54.354Z,4.63
2023-04-02T15:36:16.270Z,4.60
2023-04-02T15:38:50.739Z,4.03
2023-04-02T15:41:34.330Z,5.40
2023-04-02T15:44:16.448Z,4.13
2023-04-02T15:47:07.442Z,3.60
2023-04-02T15:49:40.378Z,3.80
2023-04-02T15:52:17.990Z,4.10
2023-04-02T15:55:35.622Z,3.87
2023-04-02T15:58:21.986Z,4.37
2023-04-02T16:01:26.331Z,4.10
2023-04-02T16:04:28.508Z,4.73
2023-04-02T16:07:51.144Z,4.57
2023-04-02T16:10:40.030Z,4.00
2023-04-02T16:13:32.415Z,4.50
2023-04-02T16:16:12.584Z,4.10
2023-04-02T16:19:33.518Z,4.50
2023-04-02T16:22:11.746Z,4.00
2023-04-02T16:24:38.745Z,4.97
2023-04-02T16:27:31.931Z,4.20
2023-04-02T16:30:30.682Z,4.67
2023-04-02T16:33:24.398Z,4.20
2023-04-02T16:36:21.423Z,4.60
2023-04-02T16:39:35.532Z,4.67
2023-04-02T16:42:45.807Z,4.43
2023-04-02T16:45:16.921Z,3.93
2023-04-02T16:47:57.737Z,4.33
2023-04-02T16:51:09.834Z,4.13
2023-04-02T16:54:04.176Z,4.43
2023-04-02T16:56:57.088Z,3.67
2023-04-02T16:59:36.105Z,4.10
2023-04-02T17:02:46.415Z,4.07
2023-04-02T17:05:33.897Z,4.40
2023-04-02T17:08:26.749Z,4.60
2023-04-02T17:11:02.916Z,4.73
2023-04-02T17:13:44.708Z,4.60
2023-04-02T17:16:41.277Z,5.10
2023-04-02T17:19:16.650Z,5.27
2023-04-02T17:21:52.925Z,5.00
2023-04-02T17:24:35.634Z,5.00
2023-04-02T17:27:39.491Z,5.40
2023-04-02T17:30:19.293Z,5.67
2023-04-02T17:32:46.387Z,5.33
2023-04-02T17:35:43.726Z,5.43
2023-04-02T17:38:27.531Z,6.13
2023-04-02T17:41:19.286Z,6.70
2023-04-02T17:44:10.722Z,6.10
2023-04-02T17:47:07.605Z,6.57
2023-04-02T17:50:15.955Z,6.30
2023-04-02T17:52:58.507Z,6.27
2023-04-02T17:56:02.441Z,6.23
2023-04-02T17:59:06.628Z,5.20
2023-04-02T18:02:01.603Z,5.70
2023-04-02T18:04:49.484Z,4.97
2023-04-02T18:07:58.459Z,5.13
2023-04-02T18:11:05.553Z,5.60
2023-04-02T18:13:46.973Z,4.57
2023-04-02T18:17:04.166Z,4.63
2023-04-02T18:19:55.875Z,4.13
2023-04-02T18:22:49.631Z,4.40
2023-04-02T18:25:34.634Z,5.13
2023-04-02T18:28:31.220Z,4.80
2023-04-02T18:31:12.502Z,4.23
2023-04-02T18:34:16.790Z,4.33
2023-04-02T18:37:15.297Z,4.67
2023-04-02T18:39:51.125Z,4.63
2023-04-02T18:42:56.142Z,4.27
2023-04-02T18:46:13.398Z,5.03
2023-04-02T18:49:18.201Z,4.40
2023-04-02T18:51:46.977Z,4.27
2023-04-02T18:54:23.030Z,4.63
2023-04-02T18:56:50.095Z,4.90
2023-04-02T18:59:29.077Z,4.93
2023-04-02T19:01:59.075Z,5.30
2023-04-02T19:04:32.778Z,5.70
2023-04-02T19:07:27.949Z,6.27
2023-04-02T19:09:58.843Z,8.20
2023-04-02T19:12:26.269Z,8.00
2023-04-02T19:14:53.763Z,7.93
2023-04-02T19:17:27.200Z,8.07
2023-04-02T19:20:25.775Z,8.63
2023-04-02T19:23:21.244Z,9.13
2023-04-02T19:26:11.525Z,9.13
2023-04-02T19:28:44.362Z,9.77
2023-04-02T19:31:51.963Z,9.73
2023-04-02T19:34:42.817Z,9.57
2023-04-02T19:37:30.719Z,9.30
2023-04-02T19:40:32.517Z,9.90
2023-04-02T19:42:59.632Z,9.33
2023-04-02T19:45:43.296Z,8.33
2023-04-02T19:48:24.499Z,8.90
2023-04-02T19:50:51.713Z,8.33
2023-04-02T19:53:19.145Z,8.00
2023-04-02T19:55:46.766Z,7.53
2023-04-02T19:58:35.847Z,7.53
2023-04-02T20:01:03.443Z,6.90
2023-04-02T20:03:31.475Z,6.47
2023-04-02T20:05:59.841Z,6.00
2023-04-02T20:08:28.044Z,5.77
2023-04-02T20:10:56.120Z,5.20
2023-04-02T20:13:23.293Z,4.63
2023-04-02T20:15:51.527Z,3.70
2023-04-02T20:18:20.538Z,3.97
2023-04-02T20:20:49.325Z,4.10
2023-04-02T20:23:17.316Z,4.40
2023-04-02T20:25:53.142Z,4.07
2023-04-02T20:28:25.553Z,4.07
2023-04-02T20:30:53.431Z,3.73
2023-04-02T20:33:24.580Z,4.00
2023-04-02T20:36:00.845Z,3.60
2023-04-02T20:38:28.440Z,4.23
2023-04-02T20:40:56.031Z,4.07
2023-04-02T20:43:27.144Z,3.90
2023-04-02T20:45:56.538Z,3.50
2023-04-02T20:48:30.884Z,3.53
2023-04-02T20:50:59.666Z,3.13
2023-04-02T20:53:29.636Z,3.40
2023-04-02T20:56:14.444Z,2.60
2023-04-02T20:58:43.245Z,3.13
2023-04-02T21:01:27.144Z,2.80
2023-04-02T21:03:58.026Z,2.53
2023-04-02T21:06:28.738Z,2.90
2023-04-02T21:08:56.344Z,2.10
2023-04-02T21:11:23.730Z,2.03
2023-04-02T21:13:51.728Z,2.23
2023-04-02T21:16:32.195Z,2.30
2023-04-02T21:19:04.201Z,1.80
2023-04-02T21:21:31.656Z,2.17
2023-04-02T21:24:02.602Z,1.80
2023-04-02T21:26:34.735Z,1.80
2023-04-02T21:29:02.769Z,1.63
2023-04-02T21:31:34.170Z,1.83
2023-04-02T21:34:01.379Z,2.10
2023-04-02T21:36:39.897Z,2.30
2023-04-02T21:39:27.290Z,2.00
2023-04-02T21:41:54.783Z,2.20
2023-04-02T21:44:23.779Z,2.13
2023-04-02T21:46:53.586Z,1.60
2023-04-02T21:49:23.226Z,2.00
2023-04-02T21:51:52.102Z,1.53
2023-04-02T21:54:19.232Z,1.83
2023-04-02T21:56:47.185Z,2.00
2023-04-02T21:59:16.458Z,2.10
2023-04-02T22:01:48.302Z,1.70
2023-04-02T22:04:22.142Z,1.77
2023-04-02T22:06:50.650Z,1.80
2023-04-02T22:09:24.053Z,1.50
2023-04-02T22:11:55.429Z,1.70
2023-04-02T22:14:23.275Z,1.17
2023-04-02T22:16:50.955Z,1.50
2023-04-02T22:19:18.302Z,1.97
2023-04-02T22:21:46.421Z,1.87
2023-04-02T22:24:16.120Z,1.40
2023-04-02T22:26:44.436Z,1.80
2023-04-02T22:29:12.052Z,1.60
2023-04-02T22:31:39.457Z,1.47
2023-04-02T22:34:07.286Z,1.70
2023-04-02T22:36:35.180Z,1.53
2023-04-02T22:39:05.621Z,1.30
2023-04-02T22:41:33.669Z,1.47
2023-04-02T22:44:02.150Z,1.43
2023-04-02T22:46:30.543Z,1.43
2023-04-02T22:48:58.156Z,1.63
2023-04-02T22:51:27.590Z,1.40
2023-04-02T22:53:56.266Z,1.30
2023-04-02T22:56:32.067Z,1.60
2023-04-02T22:58:59.499Z,1.63
2023-04-02T23:01:31.703Z,1.80
2023-04-02T23:03:59.448Z,1.77
2023-04-02T23:06:27.285Z,2.03
2023-04-02T23:08:54.310Z,1.30
2023-04-02T23:11:26.091Z,1.60
2023-04-02T23:13:56.801Z,1.40
2023-04-02T23:16:27.045Z,1.20
2023-04-02T23:18:55.509Z,1.40
2023-04-02T23:21:23.893Z,1.60
2023-04-02T23:23:51.481Z,1.40
2023-04-02T23:26:23.083Z,1.30
2023-04-02T23:28:51.169Z,1.57
2023-04-02T23:31:21.623Z,1.23
2023-04-02T23:33:49.900Z,1.63
2023-04-02T23:36:27.502Z,1.40
2023-04-02T23:38:59.699Z,1.40
2023-04-02T23:41:28.167Z,1.57
2023-04-02T23:43:57.091Z,2.13
2023-04-02T23:46:24.976Z,1.60
2023-04-02T23:48:52.692Z,1.47
2023-04-02T23:51:19.875Z,1.30
2023-04-02T23:53:48.691Z,1.60
2023-04-02T23:56:16.169Z,1.50
2023-04-02T23:58:43.222Z,1.50
